Time;durP1;ratioP1;P1;durP2;ratioP2;P2;SDS_P1;SDS_P2;PMS_P1;PMS_P2;Temp;Humidity;BMP_temperature;BMP_pressure;BME280_temperature;BME280_humidity;BME280_pressure;Samples;Min_cycle;Max_cycle;Signal;HPM_P1;HPM_P2
2023/05/04 00:03:08;;;;;;;9.73;4.55;;;;;;;5.21;100.00;102593.69;10401943;28;20052;-76
2023/05/04 00:08:08;;;;;;;10.02;5.30;;;;;;;5.19;100.00;102594.91;10359090;28;20042;-76
2023/05/04 00:13:09;;;;;;;13.63;5.95;;;;;;;4.79;100.00;102539.41;10382810;28;20042;-76
2023/05/04 00:18:09;;;;;;;10.95;5.78;;;;;;;4.98;100.00;102571.78;10417785;28;20037;-77
2023/05/04 00:23:10;;;;;;;9.70;5.22;;;;;;;4.98;100.00;102576.38;10399594;28;20049;-76
2023/05/04 00:28:10;;;;;;;12.18;6.60;;;;;;;4.95;100.00;102588.50;10400791;28;20045;-77
2023/05/04 00:33:11;;;;;;;13.32;5.53;;;;;;;4.87;100.00;102577.59;10419014;28;20437;-77
2023/05/04 00:38:12;;;;;;;11.27;5.75;;;;;;;4.84;100.00;102580.69;10399577;28;20029;-77
2023/05/04 00:43:12;;;;;;;12.55;6.00;;;;;;;4.72;100.00;102569.28;10415673;28;20034;-77
2023/05/04 00:48:13;;;;;;;12.93;6.43;;;;;;;4.65;100.00;102570.97;10366779;28;20044;-77
2023/05/04 00:53:13;;;;;;;14.38;5.97;;;;;;;4.60;100.00;102562.47;10382231;28;20034;-76
2023/05/04 00:58:14;;;;;;;10.75;5.45;;;;;;;4.50;100.00;102557.22;10399202;28;20397;-77
2023/05/04 01:03:14;;;;;;;11.82;5.93;;;;;;;3.52;100.00;102415.56;10365362;28;20033;-77
2023/05/04 01:08:17;;;;;;;12.02;6.05;;;;;;;4.32;100.00;102535.59;10397683;28;20030;-77
2023/05/04 01:13:18;;;;;;;10.52;6.10;;;;;;;4.37;100.00;102540.53;10397970;28;20125;-77
2023/05/04 01:18:18;;;;;;;8.65;6.15;;;;;;;4.37;100.00;102551.44;10398227;28;20049;-77
2023/05/04 01:23:19;;;;;;;12.00;6.25;;;;;;;4.33;100.00;102541.91;10414246;28;20037;-74
2023/05/04 01:28:24;;;;;;;13.40;7.05;;;;;;;4.24;100.00;102535.59;10382264;28;20138;-77
2023/05/04 01:33:25;;;;;;;11.48;6.57;;;;;;;4.19;100.00;102541.56;10338613;28;20077;-77
2023/05/04 01:38:25;;;;;;;12.20;5.85;;;;;;;4.10;100.00;102528.13;10364281;28;20052;-76
2023/05/04 01:43:26;;;;;;;14.00;6.32;;;;;;;4.10;100.00;102526.25;10396571;28;20069;-77
2023/05/04 01:48:27;;;;;;;12.10;6.30;;;;;;;4.01;100.00;102521.78;10363919;28;20127;-76
2023/05/04 01:53:27;;;;;;;14.57;7.00;;;;;;;3.94;100.00;102515.34;10413677;28;20554;-77
2023/05/04 01:58:28;;;;;;;12.05;6.82;;;;;;;3.99;100.00;102521.13;10413899;28;20287;-76
2023/05/04 02:03:28;;;;;;;13.02;7.43;;;;;;;3.99;100.00;102527.44;10378990;28;20045;-77
2023/05/04 02:08:29;;;;;;;12.27;7.45;;;;;;;3.98;100.00;102524.88;10413717;28;20080;-76
2023/05/04 02:13:30;;;;;;;14.50;7.38;;;;;;;3.95;100.00;102500.69;10396596;28;20072;-77
2023/05/04 02:18:30;;;;;;;12.38;7.07;;;;;;;4.02;100.00;102502.56;10379690;28;20052;-77
2023/05/04 02:23:31;;;;;;;15.25;7.90;;;;;;;4.00;100.00;102501.88;10363129;28;20037;-77
2023/05/04 02:28:31;;;;;;;17.25;9.05;;;;;;;3.90;100.00;102484.84;10414372;28;20037;-77
2023/05/04 02:33:32;;;;;;;15.45;7.97;;;;;;;3.96;100.00;102496.94;10361656;28;20041;-77
2023/05/04 02:38:32;;;;;;;19.55;8.25;;;;;;;3.86;100.00;102477.19;10400304;28;20049;-77
2023/05/04 02:43:32;;;;;;;17.02;7.70;;;;;;;4.02;100.00;102498.97;10378402;28;20045;-77
2023/05/04 02:48:33;;;;;;;19.52;8.55;;;;;;;4.01;100.00;102491.81;10395149;28;20056;-77
2023/05/04 02:53:33;;;;;;;17.15;8.02;;;;;;;4.08;100.00;102497.47;10394647;28;20034;-77
2023/05/04 02:58:34;;;;;;;14.00;7.45;;;;;;;4.07;100.00;102493.84;10412610;28;20125;-77
2023/05/04 03:03:34;;;;;;;16.85;7.80;;;;;;;4.02;100.00;102477.19;10393973;28;20056;-78
2023/05/04 03:08:35;;;;;;;13.80;7.72;;;;;;;4.08;100.00;102471.03;10376154;28;20053;-76
2023/05/04 03:13:35;;;;;;;14.63;8.25;;;;;;;4.14;100.00;102481.25;10391446;28;20041;-76
2023/05/04 03:18:36;;;;;;;14.40;7.85;;;;;;;4.19;100.00;102473.41;10408697;28;20045;-77
2023/05/04 03:23:36;;;;;;;13.95;8.32;;;;;;;4.26;100.00;102462.69;10377428;28;20327;-76
2023/05/04 03:28:37;;;;;;;13.98;7.97;;;;;;;4.26;100.00;102446.31;10394748;28;20046;-77
2023/05/04 03:33:37;;;;;;;16.60;8.27;;;;;;;4.36;100.00;102448.84;10409585;28;20052;-77
2023/05/04 03:38:38;;;;;;;19.15;8.15;;;;;;;4.32;100.00;102428.41;10391694;28;20033;-78
2023/05/04 03:43:38;;;;;;;13.30;7.30;;;;;;;4.38;100.00;102435.88;10376715;28;20049;-77
2023/05/04 03:48:39;;;;;;;16.20;8.00;;;;;;;4.43;100.00;102430.75;10375741;28;20097;-77
2023/05/04 03:53:39;;;;;;;13.93;7.97;;;;;;;4.43;100.00;102431.59;10376989;28;20450;-77
2023/05/04 03:58:40;;;;;;;16.65;8.77;;;;;;;4.47;100.00;102426.66;10377176;28;20064;-77
2023/05/04 04:03:40;;;;;;;14.65;7.60;;;;;;;4.49;100.00;102419.16;10392738;28;20033;-78
2023/05/04 04:08:41;;;;;;;13.38;7.32;;;;;;;4.38;100.00;102408.59;10384496;28;20041;-77
2023/05/04 04:13:41;;;;;;;15.77;8.07;;;;;;;4.47;100.00;102401.28;10391200;28;20041;-74
2023/05/04 04:18:42;;;;;;;14.82;7.35;;;;;;;4.56;100.00;102425.59;10391936;28;21971;-78
2023/05/04 04:23:42;;;;;;;13.60;7.05;;;;;;;4.58;100.00;102426.25;10376205;28;20053;-77
2023/05/04 04:28:45;;;;;;;13.10;6.95;;;;;;;4.68;100.00;102428.78;10381642;28;20619;-77
2023/05/04 04:33:47;;;;;;;13.07;7.50;;;;;;;4.60;100.00;102399.66;10383838;28;20033;-78
2023/05/04 04:38:47;;;;;;;11.77;7.25;;;;;;;4.82;100.00;102424.47;10383977;28;20125;-78
2023/05/04 04:43:47;;;;;;;13.38;6.95;;;;;;;4.92;100.00;102419.66;10416932;28;20033;-78
2023/05/04 04:48:49;;;;;;;14.63;8.00;;;;;;;4.97;100.00;102410.91;10415448;28;20045;-77
2023/05/04 04:53:50;;;;;;;15.00;7.35;;;;;;;5.05;100.00;102413.59;10383157;28;20042;-77
2023/05/04 04:58:50;;;;;;;19.00;6.80;;;;;;;5.01;100.00;102394.00;10417206;28;20096;-77
2023/05/04 05:03:51;;;;;;;13.38;6.85;;;;;;;5.20;100.00;102410.94;10367832;28;20034;-77
2023/05/04 05:08:52;;;;;;;14.75;6.90;;;;;;;5.23;100.00;102405.13;10357968;28;20068;-77
2023/05/04 05:13:52;;;;;;;12.20;6.80;;;;;;;5.34;100.00;102409.31;10341778;28;20069;-78
2023/05/04 05:18:53;;;;;;;16.55;6.25;;;;;;;5.51;100.00;102410.88;10393898;28;20034;-77
2023/05/04 05:23:53;;;;;;;19.80;6.95;;;;;;;5.58;100.00;102400.06;10398322;28;20037;-77
2023/05/04 05:28:53;;;;;;;13.93;6.88;;;;;;;5.69;100.00;102405.09;10379801;28;20393;-77
2023/05/04 05:33:54;;;;;;;12.40;6.43;;;;;;;5.79;100.00;102400.22;10415659;28;20072;-77
2023/05/04 05:38:55;;;;;;;14.68;7.38;;;;;;;6.07;100.00;102416.03;10396476;28;20401;-77
2023/05/04 05:43:55;;;;;;;18.42;6.10;;;;;;;6.23;100.00;102418.59;10379475;28;20037;-78
2023/05/04 05:48:55;;;;;;;14.00;6.80;;;;;;;6.32;100.00;102402.09;10358711;28;20637;-78
2023/05/04 05:53:56;;;;;;;18.55;7.03;;;;;;;6.58;100.00;102404.34;10340461;28;20042;-77
2023/05/04 05:58:56;;;;;;;15.27;6.65;;;;;;;6.63;100.00;102389.03;10340279;28;20100;-78
2023/05/04 06:03:57;;;;;;;11.93;6.15;;;;;;;6.99;100.00;102415.59;10340554;28;20037;-75
2023/05/04 06:08:59;;;;;;;15.48;6.88;;;;;;;7.13;100.00;102399.31;10339976;28;20042;-77
2023/05/04 06:14:00;;;;;;;13.48;6.15;;;;;;;7.41;100.00;102394.75;10354017;28;20030;-77
2023/05/04 06:19:00;;;;;;;18.65;5.97;;;;;;;7.61;100.00;102377.66;10393708;28;20049;-77
2023/05/04 06:24:00;;;;;;;13.07;6.15;;;;;;;7.84;100.00;102378.28;10413976;28;20026;-77
2023/05/04 06:29:01;;;;;;;13.32;6.25;;;;;;;7.99;100.00;102358.97;10395854;28;20116;-77
2023/05/04 06:34:01;;;;;;;11.60;6.03;;;;;;;8.24;100.00;102366.72;10379465;28;20030;-78
2023/05/04 06:39:02;;;;;;;13.82;6.45;;;;;;;8.40;100.00;102365.53;10395187;28;20049;-77
2023/05/04 06:44:03;;;;;;;15.63;6.40;;;;;;;8.61;100.00;102357.22;10387573;28;20076;-75
2023/05/04 06:49:04;;;;;;;11.18;5.75;;;;;;;8.95;100.00;102362.81;10383035;28;20041;-76
2023/05/04 06:54:05;;;;;;;9.63;4.97;;;;;;;9.27;100.00;102353.81;10379470;28;20116;-76
2023/05/04 06:59:05;;;;;;;16.92;5.97;;;;;;;9.40;100.00;102335.63;10412989;28;20041;-77
2023/05/04 07:04:06;;;;;;;12.48;5.97;;;;;;;9.43;100.00;102344.31;10392922;28;20037;-77
2023/05/04 07:09:07;;;;;;;10.52;6.30;;;;;;;9.64;100.00;102320.41;10393019;28;20052;-77
2023/05/04 07:14:07;;;;;;;11.52;5.07;;;;;;;9.86;100.00;102334.75;10410644;28;20065;-77
2023/05/04 07:19:09;;;;;;;14.23;4.72;;;;;;;10.05;100.00;102319.28;10408046;28;20048;-78
2023/05/04 07:24:09;;;;;;;8.50;4.88;;;;;;;10.13;100.00;102312.69;10393895;28;20168;-76
2023/05/04 07:29:10;;;;;;;10.85;5.72;;;;;;;10.15;100.00;102305.94;10360951;28;20037;-76
2023/05/04 07:34:10;;;;;;;10.40;5.57;;;;;;;10.31;100.00;102290.84;10376185;28;20045;-77
2023/05/04 07:39:11;;;;;;;10.65;5.03;;;;;;;10.59;100.00;102284.19;10359321;28;20053;-76
2023/05/04 07:44:11;;;;;;;10.45;5.60;;;;;;;10.75;100.00;102282.78;10410231;28;20439;-76
2023/05/04 07:49:12;;;;;;;8.77;4.80;;;;;;;10.88;100.00;102267.03;10410821;28;20034;-76
2023/05/04 07:54:14;;;;;;;13.88;6.70;;;;;;;11.22;100.00;102286.91;10394433;28;20026;-76
2023/05/04 07:59:16;;;;;;;14.00;4.90;;;;;;;11.38;100.00;102268.97;10410267;28;20041;-76
2023/05/04 08:04:17;;;;;;;9.10;4.82;;;;;;;11.50;100.00;102274.59;10381335;28;20042;-76
2023/05/04 08:09:18;;;;;;;10.45;5.10;;;;;;;11.55;100.00;102255.44;10398171;28;20037;-76
2023/05/04 08:14:19;;;;;;;12.65;5.47;;;;;;;11.73;100.00;102257.41;10383713;28;20038;-77
2023/05/04 08:19:20;;;;;;;12.60;5.82;;;;;;;12.08;100.00;102251.31;10400037;28;20545;-76
2023/05/04 08:24:21;;;;;;;10.15;4.63;;;;;;;12.50;100.00;102248.66;10384688;28;20075;-76
2023/05/04 08:29:21;;;;;;;13.77;5.30;;;;;;;12.88;100.00;102233.66;10400063;28;20044;-76
2023/05/04 08:34:22;;;;;;;12.60;5.40;;;;;;;13.21;100.00;102221.19;10416461;28;20471;-76
2023/05/04 08:39:22;;;;;;;9.55;4.97;;;;;;;13.41;100.00;102216.16;10397857;28;20091;-76
2023/05/04 08:44:23;;;;;;;11.05;6.00;;;;;;;13.69;100.00;102201.59;10382603;28;20432;-77
2023/05/04 08:49:23;;;;;;;15.23;5.18;;;;;;;13.88;100.00;102191.22;10367366;28;20037;-76
2023/05/04 08:54:24;;;;;;;10.35;4.88;;;;;;;14.05;100.00;102193.22;10367634;28;20489;-77
2023/05/04 08:59:24;;;;;;;11.43;4.85;;;;;;;14.26;100.00;102200.88;10382131;28;20057;-77
2023/05/04 09:04:25;;;;;;;10.05;4.68;;;;;;;14.56;100.00;102193.41;10371564;28;20129;-77
2023/05/04 09:09:26;;;;;;;13.43;4.05;;;;;;;14.37;100.00;102178.91;10324588;28;20397;-77
2023/05/04 09:14:34;;;;;;;12.07;5.57;;;;;;;14.52;100.00;102179.19;10340597;28;20499;-77
2023/05/04 09:19:34;;;;;;;10.45;5.00;;;;;;;14.65;100.00;102165.03;10341367;28;20048;-77
2023/05/04 09:24:35;;;;;;;6.30;4.20;;;;;;;15.04;100.00;102173.44;10341076;28;20030;-77
2023/05/04 09:29:38;;;;;;;14.73;4.78;;;;;;;15.17;100.00;102193.59;10339168;28;20037;-77
2023/05/04 09:34:51;;;;;;;10.75;4.57;;;;;;;15.56;100.00;102179.75;10335109;28;20502;-78
2023/05/04 09:39:57;;;;;;;8.65;4.10;;;;;;;15.87;100.00;102184.66;10331073;28;20128;-77
2023/05/04 09:45:01;;;;;;;6.13;4.07;;;;;;;16.10;100.00;102169.69;10338292;28;20125;-80
2023/05/04 09:50:14;;;;;;;15.27;4.97;;;;;;;16.60;100.00;102166.84;10323617;28;20053;-78
2023/05/04 09:55:16;;;;;;;7.15;4.25;;;;;;;16.99;100.00;102139.69;10356161;28;20030;-79
2023/05/04 10:00:17;;;;;;;9.63;4.15;;;;;;;17.25;99.85;102135.13;10323563;28;20045;-79
2023/05/04 10:05:20;;;;;;;11.13;3.83;;;;;;;17.42;98.21;102134.94;10329534;28;20038;-79
2023/05/04 10:10:20;;;;;;;7.65;4.50;;;;;;;17.17;94.18;102104.19;10322558;28;20042;-77
2023/05/04 10:15:21;;;;;;;11.32;4.75;;;;;;;17.34;92.76;102102.06;10323148;28;20058;-75
2023/05/04 10:20:53;;;;;;;5.50;3.20;;;;;;;17.60;93.60;102102.19;10322654;28;20041;-78
2023/05/04 10:26:29;;;;;;;8.65;3.53;;;;;;;17.73;88.93;102071.03;10353194;28;20581;-78
2023/05/04 10:31:40;;;;;;;11.65;4.32;;;;;;;17.70;89.81;102074.38;10363949;28;20046;-78
2023/05/04 10:36:41;;;;;;;7.38;3.95;;;;;;;17.47;88.66;102072.91;10377259;28;20057;-78
2023/05/04 10:41:41;;;;;;;8.52;3.72;;;;;;;17.09;91.39;102081.31;10322963;28;20074;-76
2023/05/04 10:46:42;;;;;;;9.52;4.20;;;;;;;16.94;88.96;102057.03;10304859;28;20034;-78
2023/05/04 10:51:43;;;;;;;8.07;3.78;;;;;;;17.23;89.60;102059.41;10320429;28;20033;-78
2023/05/04 10:56:43;;;;;;;8.55;3.55;;;;;;;17.76;89.12;102039.88;10366038;28;20038;-78
2023/05/04 11:01:44;;;;;;;9.52;3.90;;;;;;;18.06;86.92;102041.06;10340897;28;20446;-76
2023/05/04 11:06:54;;;;;;;9.27;4.18;;;;;;;18.53;88.27;102040.81;10360605;28;20076;-77
2023/05/04 11:11:56;;;;;;;5.82;3.75;;;;;;;18.78;85.94;102038.28;10360286;28;20048;-75
2023/05/04 11:17:10;;;;;;;8.52;4.13;;;;;;;18.76;85.58;102019.00;10359458;28;20045;-76
2023/05/04 11:22:12;;;;;;;9.38;4.25;;;;;;;18.40;83.23;102023.78;10343404;28;20273;-76
2023/05/04 11:27:21;;;;;;;8.60;3.92;;;;;;;18.33;80.69;101999.84;10390791;28;20041;-77
2023/05/04 11:32:22;;;;;;;7.35;3.90;;;;;;;18.40;81.46;102007.06;10371799;28;20104;-77
2023/05/04 11:37:23;;;;;;;6.85;3.47;;;;;;;18.78;77.34;101999.22;10357562;28;20064;-76
2023/05/04 11:42:23;;;;;;;8.15;4.32;;;;;;;19.06;79.18;101979.06;10389425;28;20029;-77
2023/05/04 11:47:25;;;;;;;10.13;3.75;;;;;;;19.33;75.54;101969.47;10405261;28;20037;-76
2023/05/04 11:52:29;;;;;;;7.00;3.55;;;;;;;19.79;76.54;101972.00;10371152;28;20049;-74
2023/05/04 11:57:30;;;;;;;6.53;3.00;;;;;;;19.88;70.29;101931.13;10331450;28;20038;-76
2023/05/04 12:02:31;;;;;;;12.15;3.55;;;;;;;20.12;71.28;101927.59;10369023;28;20049;-76
2023/05/04 12:07:35;;;;;;;8.88;3.50;;;;;;;20.67;73.00;101930.97;10334767;28;20522;-74
2023/05/04 12:12:36;;;;;;;8.90;3.42;;;;;;;21.58;69.84;101926.44;10338239;28;20045;-77
2023/05/04 12:17:40;;;;;;;4.85;2.90;;;;;;;21.81;67.00;101891.88;10392242;28;20045;-78
2023/05/04 12:22:41;;;;;;;8.30;3.60;;;;;;;22.06;64.29;101909.41;10343720;28;20037;-78
2023/05/04 12:27:41;;;;;;;6.68;3.00;;;;;;;22.17;62.44;101903.28;10375229;28;20041;-75
2023/05/04 12:32:42;;;;;;;4.97;3.25;;;;;;;22.77;64.17;101907.22;10376136;28;20044;-76
2023/05/04 12:37:43;;;;;;;6.20;3.55;;;;;;;23.08;60.54;101881.34;10359716;28;20057;-77
2023/05/04 12:42:43;;;;;;;4.93;2.88;;;;;;;23.23;58.84;101866.94;10357752;28;20529;-79
2023/05/04 12:47:44;;;;;;;6.53;3.55;;;;;;;23.43;59.99;101876.88;10359888;28;20025;-78
2023/05/04 12:52:44;;;;;;;8.02;3.60;;;;;;;23.68;58.29;101874.59;10358861;28;20040;-79
2023/05/04 12:57:45;;;;;;;5.65;3.22;;;;;;;23.37;56.33;101855.66;10397289;28;20068;-79
2023/05/04 13:02:45;;;;;;;3.75;3.30;;;;;;;23.37;59.11;101855.66;10349866;28;20290;-79
2023/05/04 13:07:46;;;;;;;7.47;3.72;;;;;;;23.46;59.09;101858.53;10398011;28;20060;-78
2023/05/04 13:12:47;;;;;;;7.70;3.45;;;;;;;23.40;55.99;101815.69;10413937;28;20450;-78
2023/05/04 13:17:48;;;;;;;8.32;3.67;;;;;;;23.54;56.05;101819.28;10397122;28;20044;-79
2023/05/04 13:22:50;;;;;;;11.93;3.60;;;;;;;23.76;56.55;101823.22;10365454;28;20064;-79
2023/05/04 13:27:51;;;;;;;8.57;3.17;;;;;;;24.00;56.76;101810.78;10398070;28;20053;-75
2023/05/04 13:32:52;;;;;;;8.57;3.42;;;;;;;24.59;54.29;101786.06;10380557;28;20045;-81
2023/05/04 13:37:52;;;;;;;6.82;3.15;;;;;;;24.93;53.93;101796.56;10364172;28;20070;-75
2023/05/04 13:42:53;;;;;;;8.40;3.20;;;;;;;25.26;53.80;101793.28;10381017;28;20045;-72
2023/05/04 13:47:53;;;;;;;13.07;3.53;;;;;;;25.26;53.92;101789.59;10364205;28;20072;-72
2023/05/04 13:52:54;;;;;;;6.80;2.90;;;;;;;25.19;52.92;101781.63;10412661;28;20034;-71
2023/05/04 13:57:54;;;;;;;8.85;3.13;;;;;;;24.74;52.48;101774.34;10381242;28;20065;-77
2023/05/04 14:02:55;;;;;;;5.28;3.03;;;;;;;24.27;53.47;101765.59;10380333;28;20046;-78
2023/05/04 14:07:55;;;;;;;6.70;2.85;;;;;;;24.68;54.73;101772.00;10379700;28;20041;-76
2023/05/04 14:12:56;;;;;;;6.85;3.60;;;;;;;24.34;53.48;101749.03;10396019;28;20042;-80
2023/05/04 14:17:56;;;;;;;9.95;2.70;;;;;;;24.33;55.70;101752.16;10395872;28;20041;-78
2023/05/04 14:22:57;;;;;;;9.05;2.75;;;;;;;24.13;54.43;101753.63;10395500;28;20077;-79
2023/05/04 14:27:57;;;;;;;7.75;2.75;;;;;;;24.80;52.95;101726.28;10395720;28;20048;-78
2023/05/04 14:32:58;;;;;;;8.85;3.17;;;;;;;24.55;53.17;101734.38;10412409;28;20037;-80
2023/05/04 14:37:58;;;;;;;8.75;2.70;;;;;;;24.32;53.51;101716.75;10377717;28;20049;-78
2023/05/04 14:42:59;;;;;;;11.35;4.57;;;;;;;23.52;54.58;101711.97;10379316;28;20044;-78
2023/05/04 14:48:01;;;;;;;8.13;2.70;;;;;;;22.69;54.50;101701.06;10378401;28;20056;-73
2023/05/04 14:53:01;;;;;;;9.68;3.10;;;;;;;22.29;55.21;101712.09;10393953;28;20072;-75
2023/05/04 14:58:02;;;;;;;9.25;2.72;;;;;;;21.98;55.47;101719.47;10378708;28;20088;-78
2023/05/04 15:03:03;;;;;;;10.63;3.15;;;;;;;21.53;56.67;101718.03;10378939;28;20056;-77
2023/05/04 15:08:04;;;;;;;7.20;3.00;;;;;;;21.63;57.61;101717.03;10377184;28;20125;-77
2023/05/04 15:13:05;;;;;;;5.53;2.65;;;;;;;21.73;59.20;101713.22;10392116;28;20179;-77
2023/05/04 15:18:05;;;;;;;8.13;2.80;;;;;;;21.65;59.35;101705.53;10376711;28;20064;-77
2023/05/04 15:23:09;;;;;;;6.43;2.45;;;;;;;21.23;59.71;101697.00;10391742;28;20583;-77
2023/05/04 15:28:10;;;;;;;11.52;2.90;;;;;;;20.93;62.19;101707.56;10378307;28;20049;-77
2023/05/04 15:33:11;;;;;;;14.45;2.97;;;;;;;21.14;62.92;101704.41;10360860;28;20049;-77
2023/05/04 15:38:11;;;;;;;10.93;2.40;;;;;;;21.71;61.37;101707.09;10374618;28;20057;-77
2023/05/04 15:43:12;;;;;;;7.43;2.42;;;;;;;22.03;61.99;101699.72;10376591;28;20033;-77
2023/05/04 15:48:12;;;;;;;5.53;2.35;;;;;;;23.00;59.30;101682.66;10393304;28;20042;-77
2023/05/04 15:53:13;;;;;;;7.32;2.13;;;;;;;23.42;57.33;101672.91;10393969;28;20111;-77
2023/05/04 15:58:13;;;;;;;10.40;2.80;;;;;;;23.39;56.31;101662.28;10393686;28;20040;-75
2023/05/04 16:03:14;;;;;;;5.40;2.28;;;;;;;23.87;57.55;101605.28;10374321;28;20033;-76
2023/05/04 16:08:14;;;;;;;6.38;2.08;;;;;;;25.52;55.35;101643.81;10392913;28;20037;-75
2023/05/04 16:13:15;;;;;;;9.60;2.15;;;;;;;25.30;54.45;101644.03;10409908;28;20033;-75
2023/05/04 16:18:16;;;;;;;6.40;2.28;;;;;;;24.57;54.08;101644.78;10391474;28;20045;-75
2023/05/04 16:23:16;;;;;;;5.28;2.10;;;;;;;24.05;55.50;101644.72;10412640;28;20038;-75
2023/05/04 16:28:17;;;;;;;7.22;1.75;;;;;;;22.66;56.52;101634.38;10368057;28;20080;-75
2023/05/04 16:33:18;;;;;;;6.18;2.05;;;;;;;21.48;59.48;101650.09;10379574;28;20064;-76
2023/05/04 16:38:19;;;;;;;6.80;2.17;;;;;;;20.70;60.72;101627.34;10398794;28;20037;-75
2023/05/04 16:43:19;;;;;;;5.93;2.65;;;;;;;20.36;61.36;101634.81;10382043;28;20041;-72
2023/05/04 16:48:20;;;;;;;7.97;1.95;;;;;;;20.11;63.06;101618.41;10398388;28;20041;-75
2023/05/04 16:53:20;;;;;;;5.97;2.10;;;;;;;20.13;63.41;101624.53;10381628;28;20049;-74
2023/05/04 16:58:21;;;;;;;5.22;2.03;;;;;;;20.02;64.48;101632.22;10399473;28;20030;-74
2023/05/04 17:03:21;;;;;;;4.70;2.10;;;;;;;19.56;65.47;101647.56;10382498;28;20056;-77
2023/05/04 17:08:23;;;;;;;6.80;1.90;;;;;;;19.09;67.55;101651.94;10381350;28;20064;-78
2023/05/04 17:13:24;;;;;;;5.43;2.38;;;;;;;18.74;68.73;101633.50;10414904;28;20041;-77
2023/05/04 17:18:24;;;;;;;6.43;2.10;;;;;;;18.45;68.97;101647.41;10396939;28;20036;-77
2023/05/04 17:23:26;;;;;;;6.82;2.00;;;;;;;17.86;71.29;101618.44;10378935;28;20112;-78
2023/05/04 17:28:27;;;;;;;8.48;2.35;;;;;;;17.61;71.49;101642.47;10380394;28;20053;-79
2023/05/04 17:33:28;;;;;;;6.78;2.28;;;;;;;17.44;74.86;101653.91;10360789;28;20038;-74
2023/05/04 17:38:28;;;;;;;4.50;1.75;;;;;;;17.21;76.37;101649.78;10407794;28;20033;-74
2023/05/04 17:43:29;;;;;;;7.57;2.47;;;;;;;17.06;77.64;101658.16;10397038;28;20041;-75
2023/05/04 17:48:32;;;;;;;13.30;1.98;;;;;;;16.88;79.56;101656.75;10361750;28;20041;-75
2023/05/04 17:53:32;;;;;;;7.25;2.78;;;;;;;16.69;80.16;101665.59;10396346;28;20029;-74
2023/05/04 17:58:33;;;;;;;5.43;2.35;;;;;;;16.40;80.50;101647.78;10413678;28;20041;-74
2023/05/04 18:03:34;;;;;;;8.32;2.13;;;;;;;16.18;81.77;101659.94;10378838;28;20048;-74
2023/05/04 18:08:34;;;;;;;8.52;2.40;;;;;;;15.97;82.49;101647.09;10378694;28;20041;-75
2023/05/04 18:13:35;;;;;;;6.88;2.30;;;;;;;15.80;83.15;101648.13;10395674;28;20049;-76
2023/05/04 18:18:35;;;;;;;5.25;1.92;;;;;;;15.60;84.44;101659.94;10412341;28;20056;-75
2023/05/04 18:23:36;;;;;;;6.47;2.20;;;;;;;15.42;85.96;101663.16;10395023;28;20378;-75
2023/05/04 18:28:36;;;;;;;8.95;2.45;;;;;;;15.18;86.37;101651.63;10395112;28;20096;-73
2023/05/04 18:33:37;;;;;;;8.45;2.58;;;;;;;15.01;87.70;101651.78;10394589;28;20049;-75
2023/05/04 18:38:37;;;;;;;5.05;2.38;;;;;;;14.80;88.18;101650.75;10376493;28;20140;-75
2023/05/04 18:43:38;;;;;;;7.60;2.20;;;;;;;14.25;88.89;101600.06;10393564;28;20125;-76
2023/05/04 18:48:38;;;;;;;5.65;2.72;;;;;;;14.45;88.88;101652.91;10392906;28;20037;-76
2023/05/04 18:53:39;;;;;;;8.55;2.28;;;;;;;14.36;88.80;101673.03;10411891;28;20040;-75
2023/05/04 18:58:39;;;;;;;5.90;2.10;;;;;;;14.18;90.83;101666.75;10394145;28;20030;-75
2023/05/04 19:03:40;;;;;;;7.45;1.90;;;;;;;14.01;91.11;101668.72;10392760;28;20033;-76
2023/05/04 19:08:40;;;;;;;9.57;2.83;;;;;;;13.88;92.84;101681.88;10392604;28;20037;-76
2023/05/04 19:13:41;;;;;;;7.55;2.25;;;;;;;13.64;94.30;101672.13;10410638;28;20033;-75
2023/05/04 19:18:44;;;;;;;7.55;2.30;;;;;;;13.47;93.95;101673.00;10410406;28;20041;-76
2023/05/04 19:23:45;;;;;;;4.20;2.20;;;;;;;13.39;95.06;101681.72;10411121;28;20535;-76
2023/05/04 19:28:45;;;;;;;6.13;2.20;;;;;;;13.29;96.07;101684.34;10377113;28;20044;-75
2023/05/04 19:33:46;;;;;;;4.82;2.35;;;;;;;12.61;97.16;101595.88;10376173;28;20053;-75
2023/05/04 19:38:46;;;;;;;7.07;2.90;;;;;;;12.97;97.83;101667.50;10392952;28;20034;-76
2023/05/04 19:43:47;;;;;;;5.90;2.30;;;;;;;12.86;98.79;101678.38;10392634;28;20037;-77
2023/05/04 19:48:47;;;;;;;7.07;2.20;;;;;;;12.84;100.00;101702.66;10375823;28;20662;-76
2023/05/04 19:53:48;;;;;;;8.38;2.60;;;;;;;12.71;99.85;101676.19;10377327;28;20033;-78
2023/05/04 19:58:50;;;;;;;5.55;2.42;;;;;;;12.68;100.00;101687.72;10366175;28;20056;-76
2023/05/04 20:03:50;;;;;;;7.38;2.70;;;;;;;12.60;100.00;101679.84;10401171;28;20528;-76
2023/05/04 20:08:52;;;;;;;6.68;3.03;;;;;;;12.52;100.00;101688.53;10383584;28;20045;-76
2023/05/04 20:13:53;;;;;;;5.72;2.33;;;;;;;12.43;100.00;101690.84;10382839;28;20049;-76
2023/05/04 20:18:53;;;;;;;7.90;3.25;;;;;;;12.18;100.00;101671.88;10400281;28;20053;-75
2023/05/04 20:23:54;;;;;;;5.20;2.55;;;;;;;12.20;100.00;101679.91;10418526;28;20033;-75
2023/05/04 20:28:55;;;;;;;4.78;2.28;;;;;;;12.04;100.00;101679.59;10383339;28;20041;-76
2023/05/04 20:33:55;;;;;;;8.13;2.40;;;;;;;12.00;100.00;101680.31;10349773;28;20037;-76
2023/05/04 20:38:56;;;;;;;9.27;3.00;;;;;;;11.88;100.00;101672.91;10378233;28;20044;-75
2023/05/04 20:43:57;;;;;;;5.10;2.65;;;;;;;11.77;100.00;101664.63;10398292;28;20037;-75
2023/05/04 20:48:58;;;;;;;4.95;3.35;;;;;;;11.65;100.00;101675.69;10415936;28;20033;-73
2023/05/04 20:53:58;;;;;;;7.70;3.30;;;;;;;11.58;100.00;101662.03;10366540;28;20037;-75
2023/05/04 20:58:59;;;;;;;6.72;2.78;;;;;;;11.45;100.00;101651.22;10414527;28;20528;-74
2023/05/04 21:03:59;;;;;;;5.45;2.90;;;;;;;11.48;100.00;101656.28;10355056;28;20555;-75
2023/05/04 21:09:00;;;;;;;4.18;2.60;;;;;;;11.36;100.00;101645.25;10412552;28;20038;-76
2023/05/04 21:14:02;;;;;;;5.68;3.25;;;;;;;11.34;100.00;101649.34;10379742;28;20038;-76
2023/05/04 21:19:02;;;;;;;8.95;3.15;;;;;;;11.24;100.00;101630.63;10396610;28;20114;-75
2023/05/04 21:24:03;;;;;;;7.53;3.25;;;;;;;11.23;100.00;101632.56;10397751;28;20037;-74
2023/05/04 21:29:03;;;;;;;5.20;2.70;;;;;;;11.00;100.00;101602.25;10364132;28;20049;-75
2023/05/04 21:34:04;;;;;;;6.38;2.53;;;;;;;11.06;100.00;101615.09;10412532;28;20049;-75
2023/05/04 21:39:05;;;;;;;4.95;2.80;;;;;;;11.04;100.00;101620.81;10380681;28;20053;-75
2023/05/04 21:44:05;;;;;;;6.43;2.92;;;;;;;10.97;100.00;101603.56;10381970;28;20029;-75
2023/05/04 21:49:06;;;;;;;6.43;2.88;;;;;;;11.01;100.00;101610.25;10380356;28;20103;-75
2023/05/04 21:54:07;;;;;;;4.90;2.75;;;;;;;11.06;100.00;101626.94;10380858;28;21252;-75
2023/05/04 21:59:07;;;;;;;7.15;2.88;;;;;;;11.07;100.00;101622.25;10379797;28;20041;-75
2023/05/04 22:04:08;;;;;;;10.60;2.60;;;;;;;10.97;100.00;101606.31;10379402;28;20033;-73
2023/05/04 22:09:09;;;;;;;8.77;3.63;;;;;;;10.94;100.00;101595.78;10379022;28;20040;-75
2023/05/04 22:14:09;;;;;;;11.13;3.17;;;;;;;10.92;100.00;101597.94;10396064;28;20041;-75
2023/05/04 22:19:10;;;;;;;6.15;2.95;;;;;;;10.89;100.00;101603.91;10411700;28;20038;-75
2023/05/04 22:24:10;;;;;;;6.53;2.67;;;;;;;10.85;100.00;101608.22;10374272;28;20076;-75
2023/05/04 22:29:10;;;;;;;9.65;3.08;;;;;;;10.76;100.00;101593.97;10375305;28;20045;-76
2023/05/04 22:34:11;;;;;;;5.47;3.22;;;;;;;10.76;100.00;101606.91;10355519;28;20038;-75
2023/05/04 22:39:12;;;;;;;7.20;2.95;;;;;;;10.61;100.00;101583.41;10362279;28;20067;-71
2023/05/04 22:44:12;;;;;;;10.38;3.85;;;;;;;10.67;100.00;101596.22;10412189;28;20054;-73
2023/05/04 22:49:16;;;;;;;8.50;3.53;;;;;;;10.61;100.00;101602.69;10394970;28;20041;-71
2023/05/04 22:54:16;;;;;;;8.68;3.80;;;;;;;10.57;100.00;101603.41;10412709;28;20038;-72